Time;durP1;ratioP1;P1;durP2;ratioP2;P2;SDS_P1;SDS_P2;PMS_P1;PMS_P2;Temp;Humidity;BMP_temperature;BMP_pressure;BME280_temperature;BME280_humidity;BME280_pressure;Samples;Min_cycle;Max_cycle;Signal;HPM_P1;HPM_P2
2023/04/15 00:00:05;;;;;;;12.77;9.13;;;9.70;99.90;8.90;99910;;;;582741;242;24052;-75
2023/04/15 00:02:34;;;;;;;12.77;9.37;;;9.70;99.90;8.90;99910;;;;582595;242;24078;-75
2023/04/15 00:05:01;;;;;;;12.30;9.03;;;9.70;99.90;8.90;99906;;;;582428;242;25106;-76
2023/04/15 00:07:30;;;;;;;14.47;10.17;;;9.60;99.90;8.90;99900;;;;582689;242;24049;-76
2023/04/15 00:09:57;;;;;;;11.67;8.77;;;9.60;99.90;8.90;99904;;;;582449;242;24108;-76
2023/04/15 00:12:28;;;;;;;11.63;9.30;;;9.60;99.90;8.90;99904;;;;580626;242;24091;-79
2023/04/15 00:14:57;;;;;;;10.30;9.03;;;9.60;99.90;8.90;99904;;;;582638;242;24096;-77
2023/04/15 00:17:21;;;;;;;14.67;9.87;;;9.60;99.90;8.90;99902;;;;583664;242;24094;-77
2023/04/15 00:19:49;;;;;;;12.93;9.10;;;9.60;99.90;8.90;99904;;;;583930;242;24046;-74
2023/04/15 00:22:17;;;;;;;14.73;9.43;;;9.70;99.90;8.90;99896;;;;583639;242;26347;-75
2023/04/15 00:24:45;;;;;;;12.70;9.50;;;9.70;99.90;8.90;99898;;;;583594;242;24097;-75
2023/04/15 00:27:13;;;;;;;10.93;8.33;;;9.70;99.90;8.90;99889;;;;583328;242;24114;-76
2023/04/15 00:29:41;;;;;;;13.03;8.40;;;9.70;99.90;9.00;99893;;;;583359;242;24087;-77
2023/04/15 00:32:09;;;;;;;12.33;8.77;;;9.70;99.90;8.90;99888;;;;583322;242;25115;-78
2023/04/15 00:34:36;;;;;;;11.57;9.17;;;9.70;99.90;9.00;99890;;;;583247;242;24117;-78
2023/04/15 00:37:04;;;;;;;12.27;8.13;;;9.70;99.90;9.00;99885;;;;583007;242;24078;-75
2023/04/15 00:39:32;;;;;;;15.90;9.30;;;9.70;99.90;9.00;99895;;;;583037;242;24167;-76
2023/04/15 00:42:00;;;;;;;11.60;8.47;;;9.70;99.90;9.00;99891;;;;583006;242;24083;-77
2023/04/15 00:44:28;;;;;;;14.93;8.80;;;9.80;99.90;9.00;99895;;;;583086;242;24072;-74
2023/04/15 00:46:56;;;;;;;16.63;9.07;;;9.80;99.90;9.00;99901;;;;583045;242;24074;-77
2023/04/15 00:49:24;;;;;;;12.27;9.27;;;9.80;99.90;9.10;99897;;;;582999;242;24079;-80
2023/04/15 00:51:52;;;;;;;12.97;8.57;;;9.80;99.90;9.00;99885;;;;583073;242;24110;-76
2023/04/15 00:54:20;;;;;;;9.63;8.63;;;9.80;99.90;9.00;99889;;;;582771;242;24084;-78
2023/04/15 00:56:48;;;;;;;15.00;9.13;;;9.80;99.90;9.00;99891;;;;582404;242;24079;-74
2023/04/15 00:59:15;;;;;;;11.20;8.10;;;9.80;99.90;9.00;99890;;;;582350;242;24092;-79
2023/04/15 01:01:45;;;;;;;17.20;10.13;;;9.70;99.90;9.00;99891;;;;582751;242;24093;-81
2023/04/15 01:04:12;;;;;;;12.60;8.47;;;9.70;99.90;8.90;99888;;;;591688;242;24110;-80
2023/04/15 01:06:40;;;;;;;12.40;8.17;;;9.70;99.90;8.90;99893;;;;582847;242;24096;-79
2023/04/15 01:09:08;;;;;;;17.47;13.53;;;9.60;99.90;8.90;99893;;;;577743;242;35168;-79
2023/04/15 01:11:36;;;;;;;16.37;10.77;;;9.60;99.90;8.80;99893;;;;582924;242;24077;-80
2023/04/15 01:14:07;;;;;;;13.27;9.93;;;9.60;99.90;8.70;99893;;;;582573;242;24092;-79
2023/04/15 01:16:32;;;;;;;14.10;9.27;;;9.50;99.90;8.60;99895;;;;582351;242;24094;-75
2023/04/15 01:19:03;;;;;;;11.83;9.70;;;9.40;99.90;8.60;99895;;;;582635;242;24103;-80
2023/04/15 01:21:31;;;;;;;12.73;9.63;;;9.40;99.90;8.60;99902;;;;590985;242;24082;-78
2023/04/15 01:23:59;;;;;;;14.60;9.03;;;9.30;99.90;8.50;99899;;;;582098;242;24099;-80
2023/04/15 01:26:24;;;;;;;17.07;9.07;;;9.30;99.90;8.50;99892;;;;582029;242;24086;-77
2023/04/15 01:28:52;;;;;;;14.83;9.33;;;9.30;99.90;8.50;99905;;;;583455;242;24048;-78
2023/04/15 01:31:20;;;;;;;14.77;9.37;;;9.30;99.90;8.50;99906;;;;583622;242;24059;-79
2023/04/15 01:33:48;;;;;;;12.77;8.87;;;9.20;99.90;8.50;99892;;;;583294;242;24146;-80
2023/04/15 01:36:16;;;;;;;14.07;9.17;;;9.20;99.90;8.50;99895;;;;583358;242;24089;-78
2023/04/15 01:38:45;;;;;;;10.43;8.27;;;9.30;99.90;8.50;99902;;;;582975;242;24087;-81
2023/04/15 01:41:12;;;;;;;12.70;9.20;;;9.20;99.90;8.50;99901;;;;582875;242;24083;-79
2023/04/15 01:43:40;;;;;;;16.77;8.43;;;9.20;99.90;8.60;99906;;;;582876;242;24061;-76
2023/04/15 01:46:08;;;;;;;12.77;8.00;;;9.30;99.90;8.60;99907;;;;582825;242;24083;-80
2023/04/15 01:48:37;;;;;;;12.80;6.43;;;9.40;99.90;8.60;99898;;;;587133;242;24114;-77
2023/04/15 01:51:05;;;;;;;12.10;7.93;;;9.40;99.90;8.60;99899;;;;582670;242;24082;-81
2023/04/15 01:53:33;;;;;;;10.30;8.67;;;9.40;99.90;8.60;99910;;;;582808;242;24099;-74
2023/04/15 01:56:01;;;;;;;17.50;9.37;;;9.40;99.90;8.60;99898;;;;582627;242;24042;-78
2023/04/15 01:58:29;;;;;;;13.17;7.97;;;9.40;99.90;8.60;99893;;;;582747;242;24058;-76
2023/04/15 02:00:57;;;;;;;11.00;8.97;;;9.40;99.90;8.60;99894;;;;583034;242;24336;-75
2023/04/15 02:03:27;;;;;;;11.03;7.60;;;9.30;99.90;8.50;99899;;;;582896;242;24155;-75
2023/04/15 02:05:52;;;;;;;12.17;7.57;;;9.30;99.90;8.50;99900;;;;582197;242;24054;-75
2023/04/15 02:08:20;;;;;;;16.93;12.60;;;9.20;99.90;8.50;99907;;;;577707;242;35152;-74
2023/04/15 02:10:48;;;;;;;17.50;10.80;;;9.20;99.90;8.50;99898;;;;582767;242;24077;-75
2023/04/15 02:13:16;;;;;;;12.30;8.37;;;9.20;99.90;8.40;99907;;;;582488;242;24061;-74
2023/04/15 02:15:51;;;;;;;13.07;9.60;;;9.20;99.90;8.40;99908;;;;582338;242;24079;-78
2023/04/15 02:18:18;;;;;;;11.77;8.97;;;9.10;99.90;8.40;99903;;;;582428;242;25102;-80
2023/04/15 02:20:46;;;;;;;11.57;8.50;;;9.10;99.90;8.30;99900;;;;582363;242;24107;-80
2023/04/15 02:23:14;;;;;;;12.67;9.03;;;9.10;99.90;8.30;99904;;;;582453;242;24092;-79
2023/04/15 02:25:42;;;;;;;17.13;10.57;;;9.00;99.90;8.30;99902;;;;582456;242;24079;-79
2023/04/15 02:28:09;;;;;;;15.57;9.03;;;9.00;99.90;8.30;99901;;;;582384;242;24064;-78
2023/04/15 02:30:39;;;;;;;12.90;8.93;;;9.00;99.90;8.30;99899;;;;582522;242;24089;-77
2023/04/15 02:33:06;;;;;;;13.43;8.73;;;9.00;99.90;8.30;99898;;;;582412;242;24081;-74
2023/04/15 02:35:38;;;;;;;13.37;9.43;;;9.00;99.90;8.30;99902;;;;582393;242;24174;-77
2023/04/15 02:38:03;;;;;;;13.73;8.43;;;9.00;99.90;8.30;99902;;;;582265;242;24096;-75
2023/04/15 02:40:31;;;;;;;14.70;9.10;;;9.00;99.90;8.30;99896;;;;583607;242;24080;-75
2023/04/15 02:42:59;;;;;;;8.33;6.40;;;9.00;99.90;8.30;99911;;;;583401;242;24076;-78
2023/04/15 02:45:26;;;;;;;12.57;9.30;;;9.00;99.90;8.30;99897;;;;583120;242;24063;-79
2023/04/15 02:47:54;;;;;;;11.40;7.70;;;9.10;99.90;8.30;99904;;;;583055;242;24095;-78
2023/04/15 02:50:24;;;;;;;14.13;8.83;;;9.10;99.90;8.30;99905;;;;580703;242;24148;-75
2023/04/15 02:52:51;;;;;;;10.77;8.23;;;9.00;99.90;8.30;99894;;;;583051;242;24055;-75
2023/04/15 02:55:20;;;;;;;14.23;9.90;;;9.10;99.90;8.30;99902;;;;582946;242;24053;-77
2023/04/15 02:57:49;;;;;;;12.90;7.97;;;9.10;99.90;8.40;99897;;;;583175;242;24129;-76
2023/04/15 03:00:17;;;;;;;9.43;7.37;;;9.10;99.90;8.40;99896;;;;583047;242;24115;-76
2023/04/15 03:02:44;;;;;;;10.80;8.23;;;9.10;99.90;8.40;99900;;;;582969;242;24098;-77
2023/04/15 03:05:12;;;;;;;11.67;9.00;;;9.10;99.90;8.30;99897;;;;582934;242;24109;-74
2023/04/15 03:07:41;;;;;;;11.33;8.77;;;9.10;99.90;8.40;99902;;;;583009;242;24133;-76
2023/04/15 03:10:09;;;;;;;12.37;9.53;;;9.10;99.90;8.40;99904;;;;582943;242;24058;-77
2023/04/15 03:12:37;;;;;;;10.97;8.60;;;9.10;99.90;8.40;99908;;;;582866;242;24056;-75
2023/04/15 03:15:05;;;;;;;13.93;9.63;;;9.10;99.90;8.40;99908;;;;582466;242;24101;-77
2023/04/15 03:17:33;;;;;;;10.37;9.23;;;9.10;99.90;8.40;99910;;;;582289;242;24081;-75
2023/04/15 03:20:07;;;;;;;13.00;8.77;;;9.10;99.90;8.40;99909;;;;582346;242;24049;-76
2023/04/15 03:22:35;;;;;;;14.53;8.20;;;9.10;99.90;8.40;99911;;;;582171;242;24127;-76
2023/04/15 03:24:59;;;;;;;12.47;8.60;;;9.10;99.90;8.40;99915;;;;581875;242;24096;-79
2023/04/15 03:27:27;;;;;;;26.37;9.70;;;9.10;99.90;8.40;99914;;;;582530;242;24165;-78
2023/04/15 03:29:55;;;;;;;16.13;8.50;;;9.10;99.90;8.30;99907;;;;582461;242;24071;-78
2023/04/15 03:32:23;;;;;;;13.37;8.63;;;9.10;99.90;8.30;99918;;;;582386;242;24068;-79
2023/04/15 03:34:51;;;;;;;14.20;7.87;;;9.10;99.90;8.30;99921;;;;582499;242;24114;-78
2023/04/15 03:37:19;;;;;;;14.90;8.50;;;9.10;99.90;8.30;99915;;;;582414;242;24094;-76
2023/04/15 03:39:47;;;;;;;11.93;7.83;;;9.10;99.90;8.30;99917;;;;582531;242;24049;-73
2023/04/15 03:42:15;;;;;;;11.17;8.07;;;9.00;99.90;8.30;99916;;;;582407;242;24069;-81
2023/04/15 03:44:43;;;;;;;12.27;7.83;;;9.00;99.90;8.30;99917;;;;582247;242;24158;-78
2023/04/15 03:47:10;;;;;;;12.17;7.97;;;9.00;99.90;8.30;99917;;;;582465;242;24031;-79
2023/04/15 03:49:38;;;;;;;14.40;8.10;;;9.00;99.90;8.20;99917;;;;582501;242;24082;-77
2023/04/15 03:52:06;;;;;;;10.43;8.23;;;9.00;99.90;8.20;99915;;;;583691;242;24090;-78
2023/04/15 03:54:34;;;;;;;12.23;8.50;;;9.00;99.90;8.30;99916;;;;590862;242;24112;-80
2023/04/15 03:57:02;;;;;;;11.10;9.00;;;9.00;99.90;8.30;99908;;;;583551;238;24095;-79
2023/04/15 03:59:30;;;;;;;15.77;9.07;;;9.00;99.90;8.30;99915;;;;583693;242;24055;-79
2023/04/15 04:01:58;;;;;;;13.23;9.60;;;9.00;99.90;8.30;99906;;;;582977;242;24095;-75
2023/04/15 04:04:26;;;;;;;13.17;8.10;;;9.00;99.90;8.30;99918;;;;583152;242;24111;-75
2023/04/15 04:06:54;;;;;;;13.80;9.20;;;9.00;99.90;8.30;99922;;;;583040;242;24053;-73
2023/04/15 04:09:22;;;;;;;12.73;8.40;;;9.00;99.90;8.30;99925;;;;583012;242;24089;-79
2023/04/15 04:11:50;;;;;;;13.73;9.90;;;9.00;99.90;8.30;99920;;;;582799;242;24073;-80
2023/04/15 04:14:18;;;;;;;15.33;8.80;;;9.00;99.90;8.30;99924;;;;582603;242;24097;-80
2023/04/15 04:16:46;;;;;;;13.00;9.10;;;9.00;99.90;8.30;99921;;;;583151;242;25151;-80
2023/04/15 04:19:18;;;;;;;14.23;8.93;;;9.00;99.90;8.30;99928;;;;583058;242;24096;-79
2023/04/15 04:21:42;;;;;;;9.87;8.03;;;9.00;99.90;8.30;99928;;;;582977;242;24205;-79
2023/04/15 04:24:10;;;;;;;13.67;8.90;;;9.10;99.90;8.30;99919;;;;582998;242;24056;-77
2023/04/15 04:26:38;;;;;;;12.50;8.70;;;9.10;99.90;8.30;99923;;;;582973;242;24131;-75
2023/04/15 04:29:08;;;;;;;16.42;13.68;;;9.10;99.90;8.40;99927;;;;577691;242;35186;-77
2023/04/15 04:31:34;;;;;;;14.53;11.30;;;9.10;99.90;8.40;99925;;;;582755;242;24082;-80
2023/04/15 04:34:01;;;;;;;13.50;10.20;;;9.10;99.90;8.40;99919;;;;582786;242;24069;-79
2023/04/15 04:36:29;;;;;;;14.80;9.20;;;9.10;99.90;8.40;99925;;;;582858;242;24088;-81
2023/04/15 04:38:57;;;;;;;11.10;8.80;;;9.20;99.90;8.40;99920;;;;582797;242;24177;-80
2023/04/15 04:41:25;;;;;;;20.60;9.33;;;9.20;99.90;8.40;99929;;;;582776;242;24040;-80
2023/04/15 04:43:53;;;;;;;15.10;9.37;;;9.20;99.90;8.40;99921;;;;582846;242;24105;-79
2023/04/15 04:46:22;;;;;;;17.70;9.53;;;9.20;99.90;8.40;99926;;;;582762;242;24049;-80
2023/04/15 04:48:52;;;;;;;13.43;9.10;;;9.20;99.90;8.50;99928;;;;582800;242;24097;-78
2023/04/15 04:51:17;;;;;;;15.43;9.90;;;9.20;99.90;8.50;99935;;;;582631;242;24116;-76
2023/04/15 04:53:45;;;;;;;13.10;9.10;;;9.20;99.90;8.50;99923;;;;582753;242;24069;-77
2023/04/15 04:56:13;;;;;;;15.27;9.80;;;9.30;99.90;8.60;99933;;;;582805;242;24042;-79
2023/04/15 04:58:41;;;;;;;14.07;9.47;;;9.30;99.90;8.60;99932;;;;582392;242;24107;-79
2023/04/15 05:01:09;;;;;;;12.50;9.40;;;9.40;99.90;8.60;99932;;;;591518;242;24065;-77
2023/04/15 05:03:38;;;;;;;11.00;9.13;;;9.40;99.90;8.70;99934;;;;583961;242;24112;-79
2023/04/15 05:06:07;;;;;;;13.33;9.13;;;9.40;99.90;8.70;99941;;;;584009;242;24056;-80
2023/04/15 05:08:34;;;;;;;16.43;10.13;;;9.40;99.90;8.80;99935;;;;583441;242;24095;-78
2023/04/15 05:11:02;;;;;;;10.47;8.27;;;9.50;99.90;8.80;99938;;;;583370;242;24073;-76
2023/04/15 05:13:30;;;;;;;12.97;9.47;;;9.60;99.90;8.90;99934;;;;583010;242;24116;-77
2023/04/15 05:15:58;;;;;;;13.67;8.77;;;9.60;99.90;8.90;99941;;;;583378;242;24102;-78
2023/04/15 05:18:27;;;;;;;15.57;10.40;;;9.70;99.90;8.90;99946;;;;582957;242;24073;-78
2023/04/15 05:20:55;;;;;;;13.30;10.03;;;9.70;99.90;9.00;99949;;;;582974;242;24123;-80
2023/04/15 05:23:23;;;;;;;14.50;9.50;;;9.70;99.90;9.00;99937;;;;582707;242;24054;-77
2023/04/15 05:25:51;;;;;;;15.40;9.43;;;9.80;99.90;9.10;99943;;;;582775;242;24099;-79
2023/04/15 05:28:20;;;;;;;14.27;10.67;;;9.90;99.90;9.10;99936;;;;582595;242;24098;-80
2023/04/15 05:30:47;;;;;;;16.10;10.20;;;9.90;99.90;9.20;99938;;;;582636;242;24108;-80
2023/04/15 05:33:15;;;;;;;13.87;9.90;;;9.90;99.90;9.30;99939;;;;582814;242;24058;-80
2023/04/15 05:35:43;;;;;;;16.10;9.07;;;10.00;99.90;9.40;99946;;;;582557;242;24045;-79
2023/04/15 05:38:12;;;;;;;12.47;9.30;;;10.20;99.90;9.50;99944;;;;582718;242;24072;-78
2023/04/15 05:40:40;;;;;;;17.63;10.40;;;10.20;99.90;9.60;99956;;;;582458;242;24067;-75
2023/04/15 05:43:07;;;;;;;11.77;9.27;;;10.30;99.90;9.60;99945;;;;579337;242;24122;-78
2023/04/15 05:45:35;;;;;;;10.57;9.17;;;10.40;99.90;9.70;99943;;;;591574;242;24108;-77
2023/04/15 05:48:04;;;;;;;14.00;8.53;;;10.50;99.90;9.80;99950;;;;582325;242;24090;-79
2023/04/15 05:50:32;;;;;;;13.00;9.90;;;10.50;99.90;9.90;99940;;;;582525;242;24043;-82
2023/04/15 05:53:03;;;;;;;16.13;9.23;;;10.60;99.90;10.00;99943;;;;582041;242;24074;-81
2023/04/15 05:55:32;;;;;;;15.70;10.20;;;10.70;99.90;10.00;99944;;;;591575;239;24095;-80
2023/04/15 05:57:56;;;;;;;15.07;10.17;;;10.70;99.90;10.00;99947;;;;582064;242;24099;-79
2023/04/15 06:00:24;;;;;;;13.83;8.70;;;10.70;99.90;10.00;99944;;;;579480;242;24116;-78
2023/04/15 06:02:51;;;;;;;19.83;10.37;;;10.80;99.90;10.00;99951;;;;579597;242;24045;-78
2023/04/15 06:05:19;;;;;;;10.10;9.03;;;10.80;99.90;10.10;99947;;;;579579;242;24054;-78
2023/04/15 06:07:48;;;;;;;11.20;9.40;;;10.90;99.90;10.20;99949;;;;580013;242;24224;-75
2023/04/15 06:10:19;;;;;;;12.93;10.70;;;11.00;99.90;10.20;99952;;;;579780;242;24099;-78
2023/04/15 06:12:45;;;;;;;14.70;9.97;;;11.00;99.90;10.20;99958;;;;582238;242;24063;-76
2023/04/15 06:15:13;;;;;;;12.57;9.90;;;11.00;99.90;10.20;99942;;;;586989;242;24054;-76
2023/04/15 06:17:41;;;;;;;17.67;13.00;;;11.00;99.90;10.30;99950;;;;575907;242;35187;-78
2023/04/15 06:20:12;;;;;;;15.27;11.40;;;11.00;99.90;10.30;99955;;;;580643;242;24091;-78
2023/04/15 06:22:41;;;;;;;16.37;10.93;;;11.10;99.90;10.30;99955;;;;593472;242;24071;-76
2023/04/15 06:25:07;;;;;;;13.40;10.80;;;11.10;99.90;10.40;99962;;;;592183;242;24078;-79
2023/04/15 06:27:33;;;;;;;18.40;10.57;;;11.10;99.90;10.40;99959;;;;586455;242;24091;-79
2023/04/15 06:30:01;;;;;;;14.43;10.73;;;11.10;99.90;10.40;99966;;;;580349;242;24077;-77
2023/04/15 06:32:30;;;;;;;14.90;10.67;;;11.20;99.90;10.40;99964;;;;580257;242;24084;-79
2023/04/15 06:34:59;;;;;;;17.40;10.97;;;11.20;99.90;10.40;99965;;;;593163;242;24060;-77
2023/04/15 06:37:27;;;;;;;18.97;9.63;;;11.10;99.90;10.40;99968;;;;580157;242;24065;-76
2023/04/15 06:39:56;;;;;;;11.80;9.40;;;11.10;99.90;10.30;99972;;;;580072;242;24038;-78
2023/04/15 06:42:24;;;;;;;13.43;10.43;;;11.10;99.90;10.30;99964;;;;580131;242;24045;-77
2023/04/15 06:44:52;;;;;;;13.83;9.23;;;11.10;99.90;10.40;99972;;;;580186;242;24044;-79
2023/04/15 06:47:20;;;;;;;15.93;10.23;;;11.10;99.90;10.40;99973;;;;580125;242;24096;-76
2023/04/15 06:49:48;;;;;;;14.80;9.33;;;11.10;99.90;10.60;99967;;;;580108;242;24055;-77
2023/04/15 06:52:15;;;;;;;23.23;9.57;;;11.30;99.90;10.70;99972;;;;579962;242;24143;-79
2023/04/15 06:54:46;;;;;;;19.10;10.53;;;11.40;99.90;10.80;99975;;;;580052;242;24049;-78
2023/04/15 06:57:11;;;;;;;13.03;9.73;;;11.50;99.90;10.90;99969;;;;582980;238;24048;-81
2023/04/15 06:59:42;;;;;;;16.07;10.60;;;11.70;99.90;11.10;99978;;;;579537;242;24090;-79
2023/04/15 07:02:07;;;;;;;14.77;10.47;;;11.80;99.90;11.20;99984;;;;578645;247;24128;-76
2023/04/15 07:04:35;;;;;;;13.27;9.70;;;11.90;99.90;11.20;99982;;;;582334;242;24063;-77
2023/04/15 07:07:03;;;;;;;17.80;10.10;;;11.90;99.90;11.20;99976;;;;579346;242;24119;-80
2023/04/15 07:09:34;;;;;;;16.47;10.07;;;11.90;99.90;11.20;99982;;;;579387;242;24070;-81
2023/04/15 07:11:59;;;;;;;13.53;9.23;;;11.90;99.90;11.10;99978;;;;582395;242;24064;-76
2023/04/15 07:14:28;;;;;;;16.33;9.00;;;11.90;99.90;11.20;99977;;;;579471;242;24048;-74
2023/04/15 07:16:55;;;;;;;13.37;8.03;;;11.90;99.90;11.20;99985;;;;579378;242;24105;-77
2023/04/15 07:19:23;;;;;;;11.57;8.37;;;11.90;99.90;11.10;99986;;;;579812;242;24062;-78
2023/04/15 07:21:50;;;;;;;9.17;8.13;;;11.90;99.90;11.10;99987;;;;579790;242;24084;-76
2023/04/15 07:24:19;;;;;;;13.87;9.13;;;11.90;99.90;11.20;99982;;;;582701;242;24037;-77
2023/04/15 07:26:46;;;;;;;8.83;7.30;;;11.90;99.90;11.10;99987;;;;580917;242;24095;-77
2023/04/15 07:29:14;;;;;;;11.23;8.40;;;11.90;99.90;11.10;99988;;;;583877;242;24114;-75
2023/04/15 07:31:42;;;;;;;12.77;9.07;;;11.80;99.90;11.00;99986;;;;580668;242;24056;-76
2023/04/15 07:34:10;;;;;;;12.50;8.83;;;11.80;99.90;11.00;100002;;;;580663;242;24102;-81
2023/04/15 07:36:42;;;;;;;10.17;8.10;;;11.80;99.90;11.10;99993;;;;583331;242;24122;-75
2023/04/15 07:39:06;;;;;;;17.47;9.10;;;11.80;99.90;11.20;99990;;;;580059;242;24080;-74
2023/04/15 07:41:34;;;;;;;13.87;9.80;;;11.90;99.90;11.30;99997;;;;580358;242;24050;-77
2023/04/15 07:44:02;;;;;;;14.70;8.63;;;12.00;99.90;11.40;99992;;;;583188;242;24052;-79
2023/04/15 07:46:31;;;;;;;13.43;8.00;;;12.10;99.90;11.50;99998;;;;582308;242;24094;-76
2023/04/15 07:48:59;;;;;;;10.63;8.73;;;12.20;99.90;11.60;99998;;;;580135;242;24097;-78
2023/04/15 07:51:28;;;;;;;12.43;9.30;;;12.30;99.90;11.60;99994;;;;580077;242;24042;-75
2023/04/15 07:53:55;;;;;;;15.93;10.50;;;12.30;99.90;11.60;99996;;;;575061;242;35073;-79
2023/04/15 07:56:25;;;;;;;11.87;8.50;;;12.30;99.90;11.60;99996;;;;580012;242;24088;-77
2023/04/15 07:58:53;;;;;;;15.50;8.70;;;12.30;99.90;11.60;99995;;;;579727;242;24060;-76
2023/04/15 08:01:21;;;;;;;9.73;7.53;;;12.30;99.90;11.70;99994;;;;579667;242;24078;-76
2023/04/15 08:03:49;;;;;;;16.97;8.47;;;11.90;99.90;11.70;99997;;;;582259;242;24048;-76
2023/04/15 08:06:17;;;;;;;10.77;8.73;;;12.40;99.90;11.70;100001;;;;579604;242;24104;-78
2023/04/15 08:08:44;;;;;;;9.37;7.47;;;12.40;99.90;11.70;99997;;;;567862;247;24098;-78
2023/04/15 08:11:12;;;;;;;9.30;7.30;;;12.40;99.90;11.70;99993;;;;582578;242;24054;-76
2023/04/15 08:13:41;;;;;;;11.07;7.53;;;12.40;99.90;11.70;100002;;;;591492;242;24064;-77
2023/04/15 08:16:26;;;;;;;8.10;6.63;;;12.40;99.90;11.60;99991;;;;582482;242;24043;-79
2023/04/15 08:18:50;;;;;;;13.53;7.73;;;12.30;99.90;11.60;99999;;;;581996;242;24069;-78
2023/04/15 08:21:18;;;;;;;11.87;7.63;;;12.30;99.90;11.60;100002;;;;582743;242;24096;-79
2023/04/15 08:23:46;;;;;;;12.20;9.83;;;12.30;99.90;11.60;99996;;;;577938;242;35187;-80
2023/04/15 08:26:16;;;;;;;12.53;9.87;;;12.30;99.90;11.60;99999;;;;586268;242;35221;-79
2023/04/15 08:28:42;;;;;;;12.27;8.60;;;12.30;99.90;11.50;99999;;;;579588;242;24072;-75
2023/04/15 08:31:12;;;;;;;10.30;7.60;;;12.30;99.90;11.50;99994;;;;591464;242;24049;-76
2023/04/15 08:33:37;;;;;;;8.53;7.63;;;12.20;99.90;11.50;100005;;;;579734;242;24073;-78
2023/04/15 08:36:06;;;;;;;11.20;8.23;;;12.20;99.90;11.40;100003;;;;582820;242;24061;-75
2023/04/15 08:38:33;;;;;;;8.80;7.47;;;12.10;99.90;11.30;100003;;;;583901;242;24041;-79
2023/04/15 08:41:04;;;;;;;12.20;7.27;;;12.10;99.90;11.30;100016;;;;583959;242;24085;-77
2023/04/15 08:43:35;;;;;;;9.93;7.73;;;12.10;99.90;11.40;99997;;;;583520;242;24075;-79
2023/04/15 08:46:04;;;;;;;9.77;7.73;;;12.40;99.90;11.80;100008;;;;592368;242;24059;-79
2023/04/15 08:48:34;;;;;;;11.10;7.97;;;12.70;99.90;12.00;100006;;;;583297;242;24127;-81
2023/04/15 08:51:01;;;;;;;9.77;7.80;;;12.60;99.90;12.10;100004;;;;586804;242;24135;-78
2023/04/15 08:53:31;;;;;;;14.77;7.93;;;12.80;99.90;12.00;100005;;;;583312;242;24056;-78
2023/04/15 08:55:57;;;;;;;9.23;7.67;;;12.80;99.90;12.00;100013;;;;583026;242;24070;-80
2023/04/15 08:58:25;;;;;;;13.93;8.53;;;12.70;99.90;11.90;100009;;;;582409;242;24058;-79
2023/04/15 09:00:56;;;;;;;8.93;7.07;;;12.70;99.90;11.80;100012;;;;582705;242;24081;-79
2023/04/15 09:03:23;;;;;;;10.50;7.50;;;12.60;99.90;11.70;100012;;;;582753;242;24046;-76
2023/04/15 09:05:48;;;;;;;11.03;7.27;;;12.50;99.90;11.70;100014;;;;582537;242;24065;-80
2023/04/15 09:08:16;;;;;;;7.43;6.03;;;12.40;99.90;11.60;100011;;;;582457;242;24046;-76
2023/04/15 09:10:44;;;;;;;12.67;7.30;;;12.40;99.90;11.60;100009;;;;568180;246;24101;-78
2023/04/15 09:13:12;;;;;;;7.90;6.47;;;12.30;99.90;11.60;100019;;;;580444;242;24092;-76
2023/04/15 09:15:40;;;;;;;10.17;7.27;;;12.30;99.90;11.50;100017;;;;579517;242;24091;-78
2023/04/15 09:18:08;;;;;;;10.93;7.50;;;12.30;99.90;11.60;100015;;;;582433;242;24080;-78
2023/04/15 09:20:42;;;;;;;8.93;6.73;;;12.30;99.90;11.60;100016;;;;591515;236;24045;-75
2023/04/15 09:23:16;;;;;;;7.17;6.47;;;12.30;99.90;11.50;100018;;;;582836;242;24093;-75
2023/04/15 09:25:43;;;;;;;7.60;6.67;;;12.30;99.90;11.50;100008;;;;581100;242;24064;-75
2023/04/15 09:28:11;;;;;;;8.50;6.27;;;12.20;99.90;11.40;100016;;;;582836;242;24117;-75
2023/04/15 09:30:39;;;;;;;10.67;7.57;;;12.20;99.90;11.40;100009;;;;581489;242;24058;-75
2023/04/15 09:33:09;;;;;;;10.30;7.40;;;12.10;99.90;11.40;100024;;;;582704;242;24054;-74
2023/04/15 09:35:39;;;;;;;8.03;6.10;;;12.10;99.90;11.30;100014;;;;582692;242;24035;-77
2023/04/15 09:38:06;;;;;;;11.43;7.80;;;12.10;99.90;11.20;100013;;;;582614;242;24155;-77
2023/04/15 09:40:32;;;;;;;8.87;7.63;;;12.00;99.90;11.20;100018;;;;590885;240;24048;-77
2023/04/15 09:42:59;;;;;;;14.43;7.63;;;12.00;99.90;11.30;100014;;;;582603;242;24089;-76
2023/04/15 09:45:27;;;;;;;11.60;7.20;;;12.00;99.90;11.40;100017;;;;583086;242;24125;-80
2023/04/15 09:47:55;;;;;;;9.03;7.27;;;12.10;99.90;11.60;100018;;;;583053;242;24052;-78
2023/04/15 09:50:22;;;;;;;14.50;7.33;;;12.20;99.90;11.60;100015;;;;584432;242;24101;-78
2023/04/15 09:52:51;;;;;;;12.83;9.67;;;12.30;99.90;11.60;100014;;;;578759;242;35160;-79
2023/04/15 09:55:19;;;;;;;10.43;8.27;;;12.30;99.90;11.60;100022;;;;583980;242;24032;-80
2023/04/15 09:57:47;;;;;;;15.60;7.20;;;12.40;99.90;11.60;100023;;;;584360;242;24094;-80
2023/04/15 10:00:16;;;;;;;10.57;7.13;;;12.30;99.90;11.60;100022;;;;583448;242;24040;-79
2023/04/15 10:02:44;;;;;;;15.30;6.47;;;12.30;99.90;11.60;100026;;;;583061;242;24075;-77
2023/04/15 10:05:13;;;;;;;12.53;7.30;;;12.30;99.90;11.60;100027;;;;582491;242;24073;-75
2023/04/15 10:07:42;;;;;;;10.87;7.27;;;12.30;99.90;11.60;100031;;;;582606;242;24112;-80
2023/04/15 10:10:13;;;;;;;12.03;7.83;;;12.30;99.90;11.50;100029;;;;582675;242;24055;-79
2023/04/15 10:12:38;;;;;;;9.43;7.43;;;12.30;99.90;11.50;100021;;;;591324;241;24080;-75
2023/04/15 10:15:09;;;;;;;11.10;7.77;;;12.20;99.90;11.50;100021;;;;582637;242;24081;-77
2023/04/15 10:17:35;;;;;;;16.70;8.00;;;12.20;99.90;11.50;100027;;;;582448;242;24077;-77
2023/04/15 10:20:03;;;;;;;10.40;7.53;;;12.20;99.90;11.50;100032;;;;582674;242;24050;-78
2023/04/15 10:22:32;;;;;;;16.60;7.13;;;12.20;99.90;11.50;100032;;;;582456;242;24068;-75
2023/04/15 10:25:00;;;;;;;11.77;7.17;;;12.20;99.90;11.50;100039;;;;583153;242;24137;-75
2023/04/15 10:27:28;;;;;;;11.40;7.33;;;12.20;99.90;11.50;100026;;;;582888;242;24045;-75
2023/04/15 10:29:56;;;;;;;9.73;6.50;;;12.30;99.90;11.60;100022;;;;583012;242;24076;-75
2023/04/15 10:32:24;;;;;;;8.47;6.27;;;12.30;99.90;11.70;100035;;;;580890;242;24091;-74
2023/04/15 10:34:52;;;;;;;12.80;7.67;;;12.40;99.90;11.90;100021;;;;591668;242;24071;-77
2023/04/15 10:37:20;;;;;;;9.47;5.93;;;12.50;99.90;12.00;100025;;;;592075;242;24060;-76
2023/04/15 10:39:51;;;;;;;7.87;6.53;;;12.70;99.90;12.20;100027;;;;582974;242;24045;-76
2023/04/15 10:42:16;;;;;;;10.33;7.13;;;12.80;99.90;12.30;100033;;;;578944;247;24080;-77
2023/04/15 10:44:44;;;;;;;9.23;6.80;;;13.00;99.90;12.30;100038;;;;591731;242;24088;-74
2023/04/15 10:47:12;;;;;;;9.83;6.40;;;13.00;99.90;12.30;100022;;;;582777;242;24076;-82
2023/04/15 10:49:52;;;;;;;15.13;6.53;;;13.00;99.90;12.30;100024;;;;582732;242;24089;-80
2023/04/15 10:52:26;;;;;;;9.73;6.93;;;13.00;99.90;12.20;100033;;;;581100;242;24051;-81
2023/04/15 10:55:17;;;;;;;9.60;6.20;;;13.00;99.90;12.10;100031;;;;583076;242;24093;-78
2023/04/15 10:57:45;;;;;;;11.20;6.80;;;12.90;99.90;12.10;100028;;;;561491;247;24232;-81
2023/04/15 11:00:16;;;;;;;10.10;6.17;;;12.80;99.90;12.00;100028;;;;583043;240;24081;-80
2023/04/15 11:02:47;;;;;;;13.07;5.97;;;12.70;99.90;11.80;100026;;;;584147;242;24094;-81
2023/04/15 11:05:18;;;;;;;7.57;5.83;;;12.60;99.90;11.80;100038;;;;582928;242;24138;-81
2023/04/15 11:07:58;;;;;;;13.07;6.00;;;12.50;99.90;11.70;100030;;;;583313;241;24083;-80
2023/04/15 11:10:30;;;;;;;7.23;6.20;;;12.40;99.90;11.70;100027;;;;583259;242;25134;-77
2023/04/15 11:12:57;;;;;;;10.17;6.13;;;12.40;99.90;11.70;100033;;;;583529;242;24052;-76
2023/04/15 11:15:40;;;;;;;7.27;5.77;;;12.40;99.90;11.80;100030;;;;592157;242;24052;-79
2023/04/15 11:18:14;;;;;;;9.43;6.30;;;12.50;99.90;11.90;100019;;;;583648;242;24060;-81